Time;durP1;ratioP1;P1;durP2;ratioP2;P2;SDS_P1;SDS_P2;PMS_P1;PMS_P2;Temp;Humidity;BMP_temperature;BMP_pressure;BME280_temperature;BME280_humidity;BME280_pressure;Samples;Min_cycle;Max_cycle;Signal;HPM_P1;HPM_P2
2023/06/28 00:01:02;;;;;;;10.82;4.93;;;13.10;99.90;;;;;;5029732;28;20045;-79
2023/06/28 00:03:28;;;;;;;7.95;4.78;;;13.00;99.90;;;;;;5017064;28;20566;-79
2023/06/28 00:05:54;;;;;;;10.15;5.03;;;13.10;99.90;;;;;;5018278;28;20045;-79
2023/06/28 00:08:20;;;;;;;11.15;4.63;;;13.10;99.90;;;;;;5020599;28;20056;-79
2023/06/28 00:10:46;;;;;;;11.30;4.80;;;13.10;99.90;;;;;;5019784;28;20116;-78
2023/06/28 00:13:12;;;;;;;7.22;4.85;;;13.10;99.90;;;;;;5029231;28;20055;-79
2023/06/28 00:15:37;;;;;;;9.15;5.00;;;13.10;99.90;;;;;;5033984;28;20045;-79
2023/06/28 00:18:03;;;;;;;10.90;5.07;;;13.10;99.90;;;;;;5034338;28;20049;-79
2023/06/28 00:20:29;;;;;;;9.25;4.68;;;13.10;99.90;;;;;;5062714;28;20440;-79
2023/06/28 00:22:55;;;;;;;11.02;5.05;;;13.10;99.90;;;;;;5018890;28;20059;-79
2023/06/28 00:25:21;;;;;;;12.52;5.13;;;13.20;99.90;;;;;;5033516;28;20080;-79
2023/06/28 00:27:46;;;;;;;12.23;5.07;;;13.20;99.90;;;;;;5033305;28;20037;-79
2023/06/28 00:30:13;;;;;;;12.82;5.70;;;13.20;99.90;;;;;;5017667;28;20445;-79
2023/06/28 00:32:39;;;;;;;13.35;5.70;;;13.20;99.90;;;;;;5032597;28;20127;-79
2023/06/28 00:35:05;;;;;;;9.45;5.20;;;13.20;99.90;;;;;;5031980;28;20075;-79
2023/06/28 00:37:32;;;;;;;14.35;5.60;;;13.20;99.90;;;;;;5064795;28;20083;-79
2023/06/28 00:39:58;;;;;;;11.35;5.57;;;13.20;99.90;;;;;;5030782;28;20045;-79
2023/06/28 00:42:24;;;;;;;12.63;5.65;;;13.10;99.90;;;;;;5018041;28;20136;-79
2023/06/28 00:44:50;;;;;;;10.18;5.43;;;13.10;99.90;;;;;;5062355;28;20140;-79
2023/06/28 00:47:16;;;;;;;11.23;5.40;;;13.10;99.90;;;;;;5034943;28;20120;-79
2023/06/28 00:49:43;;;;;;;9.75;5.35;;;13.10;99.90;;;;;;5031444;28;20056;-79
2023/06/28 00:52:11;;;;;;;7.97;5.53;;;13.00;99.90;;;;;;5015592;28;20036;-79
2023/06/28 00:54:37;;;;;;;12.02;5.68;;;13.00;99.90;;;;;;5026671;28;20132;-79
2023/06/28 00:57:04;;;;;;;11.52;5.72;;;13.00;99.90;;;;;;5028480;28;20100;-79
2023/06/28 00:59:30;;;;;;;13.57;6.47;;;13.00;99.90;;;;;;5024130;28;20037;-79
2023/06/28 01:01:57;;;;;;;13.85;6.45;;;13.00;99.90;;;;;;5028973;28;20049;-79
2023/06/28 01:04:22;;;;;;;16.85;6.70;;;13.00;99.90;;;;;;5032668;28;20079;-79
2023/06/28 01:06:54;;;;;;;10.85;5.82;;;13.10;99.90;;;;;;5017932;28;20090;-79
2023/06/28 01:09:28;;;;;;;11.32;6.10;;;13.00;99.90;;;;;;5033713;28;20108;-79
2023/06/28 01:11:55;;;;;;;9.93;5.93;;;13.00;99.90;;;;;;5044472;28;20184;-79
2023/06/28 01:14:23;;;;;;;10.05;5.70;;;13.00;99.90;;;;;;5031969;28;20067;-79
2023/06/28 01:16:54;;;;;;;10.90;5.80;;;13.00;99.90;;;;;;5028331;28;20093;-79
2023/06/28 01:19:23;;;;;;;10.75;5.82;;;13.00;99.90;;;;;;5016869;28;20160;-79
2023/06/28 01:21:51;;;;;;;12.05;6.03;;;13.00;99.90;;;;;;5019687;28;20067;-79
2023/06/28 01:24:21;;;;;;;11.93;6.45;;;13.00;99.90;;;;;;5044092;28;20836;-79
2023/06/28 01:26:51;;;;;;;11.25;6.88;;;13.00;99.90;;;;;;5048540;28;20037;-79
2023/06/28 01:29:21;;;;;;;10.10;5.93;;;13.10;99.90;;;;;;5033026;28;20128;-79
2023/06/28 01:31:55;;;;;;;10.90;6.03;;;13.00;99.90;;;;;;5033364;28;20260;-79
2023/06/28 01:34:26;;;;;;;12.43;6.70;;;13.00;99.90;;;;;;5046360;28;20112;-79
2023/06/28 01:36:54;;;;;;;12.45;5.72;;;13.10;99.90;;;;;;5037874;28;20508;-79
2023/06/28 01:39:22;;;;;;;10.90;5.70;;;13.00;99.90;;;;;;5033323;28;20484;-79
2023/06/28 01:41:49;;;;;;;11.95;5.88;;;13.00;99.90;;;;;;5033832;28;20067;-79
2023/06/28 01:44:15;;;;;;;9.10;5.43;;;13.00;99.90;;;;;;5020749;28;20476;-79
2023/06/28 01:46:41;;;;;;;8.77;5.70;;;13.00;99.90;;;;;;5029995;28;20036;-79
2023/06/28 01:49:07;;;;;;;12.57;6.22;;;13.00;99.90;;;;;;5017296;28;20420;-79
2023/06/28 01:51:34;;;;;;;9.60;5.55;;;12.90;99.90;;;;;;5029096;28;20042;-80
2023/06/28 01:54:02;;;;;;;9.85;6.45;;;12.90;99.90;;;;;;5064763;28;20090;-79
2023/06/28 01:56:28;;;;;;;12.13;6.53;;;12.90;99.90;;;;;;5032494;28;20405;-79
2023/06/28 01:58:53;;;;;;;10.35;6.03;;;12.90;99.90;;;;;;5018421;28;20047;-79
2023/06/28 02:01:19;;;;;;;11.40;6.82;;;12.90;99.90;;;;;;5032801;28;20068;-79
2023/06/28 02:03:45;;;;;;;10.00;5.97;;;12.90;99.90;;;;;;5037569;28;20041;-79
2023/06/28 02:06:10;;;;;;;9.75;5.97;;;12.90;99.90;;;;;;5038741;28;20048;-79
2023/06/28 02:08:36;;;;;;;13.57;6.65;;;12.90;99.90;;;;;;5066090;28;20491;-80
2023/06/28 02:11:02;;;;;;;11.57;6.00;;;13.00;99.90;;;;;;5050297;28;20072;-78
2023/06/28 02:13:27;;;;;;;10.52;6.18;;;13.00;99.90;;;;;;5021768;28;20306;-79
2023/06/28 02:15:54;;;;;;;13.35;5.90;;;13.00;99.90;;;;;;5065123;28;20102;-79
2023/06/28 02:18:24;;;;;;;9.38;6.25;;;12.90;99.90;;;;;;5020965;28;20041;-79
2023/06/28 02:20:51;;;;;;;9.88;5.45;;;13.00;99.90;;;;;;5019122;28;20377;-79
2023/06/28 02:23:18;;;;;;;12.52;6.15;;;13.00;99.90;;;;;;5031716;28;20191;-79
2023/06/28 02:25:44;;;;;;;16.33;6.88;;;13.00;99.90;;;;;;5064197;28;20651;-79
2023/06/28 02:28:12;;;;;;;10.25;6.07;;;13.00;99.90;;;;;;5034146;28;20176;-79
2023/06/28 02:30:38;;;;;;;10.85;6.18;;;13.10;99.90;;;;;;5054383;28;20029;-79
2023/06/28 02:33:04;;;;;;;10.82;5.95;;;13.10;99.90;;;;;;5029301;28;20412;-79
2023/06/28 02:35:30;;;;;;;10.93;6.30;;;13.10;99.90;;;;;;5044263;28;20468;-80
2023/06/28 02:37:56;;;;;;;12.57;6.25;;;13.10;99.90;;;;;;5032890;28;20087;-79
2023/06/28 02:40:24;;;;;;;9.60;6.32;;;13.10;99.90;;;;;;5017237;28;20481;-79
2023/06/28 02:42:50;;;;;;;13.00;5.70;;;13.20;99.90;;;;;;5021317;28;20068;-79
2023/06/28 02:45:16;;;;;;;14.07;5.93;;;13.20;99.90;;;;;;5036531;28;20452;-79
2023/06/28 02:47:41;;;;;;;12.65;5.88;;;13.20;99.90;;;;;;5025109;28;20044;-79
2023/06/28 02:50:07;;;;;;;13.70;6.28;;;13.20;99.90;;;;;;5032100;28;21208;-79
2023/06/28 02:52:33;;;;;;;12.52;6.30;;;13.30;99.90;;;;;;5029479;28;20413;-79
2023/06/28 02:54:58;;;;;;;9.45;6.30;;;13.30;99.90;;;;;;5021405;28;20277;-79
2023/06/28 02:57:24;;;;;;;11.10;5.93;;;13.30;99.90;;;;;;5033260;28;20624;-79
2023/06/28 02:59:50;;;;;;;14.52;6.25;;;13.30;99.90;;;;;;5066426;28;20045;-79
2023/06/28 03:02:16;;;;;;;8.43;6.18;;;13.40;99.90;;;;;;5018325;28;20060;-79
2023/06/28 03:04:42;;;;;;;13.45;5.93;;;13.40;99.90;;;;;;5034530;28;20060;-79
2023/06/28 03:07:18;;;;;;;12.63;6.32;;;13.40;99.90;;;;;;5029356;28;20427;-79
2023/06/28 03:09:44;;;;;;;10.95;5.30;;;13.50;99.90;;;;;;5062948;28;20413;-78
2023/06/28 03:12:11;;;;;;;12.07;5.75;;;13.50;99.90;;;;;;5050443;28;20124;-79
2023/06/28 03:14:36;;;;;;;11.52;6.28;;;13.50;99.90;;;;;;5033162;28;20070;-79
2023/06/28 03:17:02;;;;;;;13.10;6.50;;;13.50;99.90;;;;;;5034835;28;20040;-79
2023/06/28 03:19:28;;;;;;;11.45;6.18;;;13.60;99.90;;;;;;5021125;28;20771;-79
2023/06/28 03:21:53;;;;;;;11.95;6.15;;;13.60;99.90;;;;;;5022396;28;21419;-79
2023/06/28 03:24:22;;;;;;;14.73;6.25;;;13.60;99.90;;;;;;5018750;28;20558;-79
2023/06/28 03:26:48;;;;;;;9.88;5.65;;;13.70;99.90;;;;;;5017360;28;20120;-79
2023/06/28 03:29:14;;;;;;;10.45;5.78;;;13.70;99.90;;;;;;5047237;28;20043;-79
2023/06/28 03:31:39;;;;;;;11.88;6.55;;;13.70;99.90;;;;;;5045212;28;20109;-79
2023/06/28 03:34:05;;;;;;;13.45;6.20;;;13.80;99.90;;;;;;5031351;28;20048;-79
2023/06/28 03:36:32;;;;;;;10.43;5.70;;;13.90;99.90;;;;;;5019765;28;20393;-79
2023/06/28 03:38:58;;;;;;;9.10;5.53;;;13.90;99.90;;;;;;5018530;28;20107;-79
2023/06/28 03:41:27;;;;;;;12.73;6.53;;;13.90;99.90;;;;;;5031392;28;20517;-79
2023/06/28 03:43:53;;;;;;;9.82;6.05;;;14.00;99.90;;;;;;5049352;28;20130;-79
2023/06/28 03:46:19;;;;;;;11.35;5.90;;;14.00;99.90;;;;;;5049364;28;20120;-79
2023/06/28 03:48:44;;;;;;;13.80;6.20;;;14.00;99.90;;;;;;5028051;28;20049;-79
2023/06/28 03:51:10;;;;;;;10.20;6.00;;;14.10;99.90;;;;;;5033541;28;20076;-79
2023/06/28 03:53:35;;;;;;;10.80;6.03;;;14.10;99.90;;;;;;5031963;28;20131;-79
2023/06/28 03:56:01;;;;;;;10.13;6.20;;;14.10;99.90;;;;;;5053446;28;20183;-79
2023/06/28 03:58:30;;;;;;;9.73;5.68;;;14.10;99.90;;;;;;5032360;28;20059;-79
2023/06/28 04:00:55;;;;;;;14.07;5.85;;;14.20;99.90;;;;;;5026850;28;20135;-80
2023/06/28 04:03:21;;;;;;;9.43;5.78;;;14.20;99.90;;;;;;5060719;28;20053;-80
2023/06/28 04:05:47;;;;;;;8.90;6.13;;;14.20;99.90;;;;;;5033906;28;20392;-80
2023/06/28 04:08:12;;;;;;;9.50;5.80;;;14.20;99.90;;;;;;5022752;28;20033;-80
2023/06/28 04:10:38;;;;;;;9.70;5.65;;;14.30;99.90;;;;;;5034363;28;20033;-80
2023/06/28 04:13:04;;;;;;;10.60;5.57;;;14.30;99.90;;;;;;5013025;28;20057;-79
2023/06/28 04:15:30;;;;;;;8.95;5.53;;;14.30;99.90;;;;;;5032571;28;20083;-79
2023/06/28 04:17:56;;;;;;;9.00;5.28;;;14.30;99.90;;;;;;5027786;28;20076;-79
2023/06/28 04:20:21;;;;;;;9.13;5.50;;;14.30;99.90;;;;;;5036504;28;20094;-79
2023/06/28 04:22:47;;;;;;;9.38;5.03;;;14.30;99.90;;;;;;5062739;28;20044;-79
2023/06/28 04:25:13;;;;;;;9.82;5.32;;;14.40;99.90;;;;;;5063794;28;20063;-79
2023/06/28 04:27:38;;;;;;;10.70;5.30;;;14.30;99.90;;;;;;5022869;28;20099;-79
2023/06/28 04:30:05;;;;;;;10.23;5.05;;;14.40;99.90;;;;;;5026365;28;20570;-80
2023/06/28 04:32:31;;;;;;;9.52;5.30;;;14.30;99.90;;;;;;5031081;28;20566;-79
2023/06/28 04:34:59;;;;;;;8.95;5.25;;;14.40;99.90;;;;;;5031996;28;20040;-79
2023/06/28 04:37:27;;;;;;;11.32;5.30;;;14.40;99.90;;;;;;5033265;28;20051;-79
2023/06/28 04:39:57;;;;;;;9.45;4.90;;;14.50;99.90;;;;;;5062900;28;20485;-79
2023/06/28 04:42:23;;;;;;;9.90;4.88;;;14.50;99.90;;;;;;5032802;28;20412;-79
2023/06/28 04:44:50;;;;;;;7.28;4.80;;;14.50;99.90;;;;;;5064151;28;20416;-79
2023/06/28 04:47:17;;;;;;;9.38;4.90;;;14.50;99.90;;;;;;5045944;28;20123;-79
2023/06/28 04:49:47;;;;;;;6.38;4.43;;;14.60;99.90;;;;;;5034562;28;21469;-80
2023/06/28 04:52:14;;;;;;;8.68;4.80;;;14.60;99.90;;;;;;5030299;28;20452;-80
2023/06/28 04:54:46;;;;;;;10.40;5.20;;;14.60;99.90;;;;;;5030508;28;20049;-80
2023/06/28 04:57:13;;;;;;;9.77;4.72;;;14.70;99.90;;;;;;5043934;28;20048;-80
2023/06/28 04:59:42;;;;;;;9.13;4.60;;;14.70;99.90;;;;;;5060881;28;20565;-79
2023/06/28 05:02:09;;;;;;;6.70;4.70;;;14.70;99.90;;;;;;5040377;28;20359;-80
2023/06/28 05:04:36;;;;;;;6.47;4.18;;;14.80;99.90;;;;;;5032722;28;20056;-80
2023/06/28 05:07:04;;;;;;;8.05;4.30;;;14.80;99.90;;;;;;5044956;28;20095;-79
2023/06/28 05:09:34;;;;;;;8.93;4.45;;;14.80;99.90;;;;;;5045399;28;20452;-79
2023/06/28 05:12:01;;;;;;;6.93;4.30;;;15.00;99.90;;;;;;5061311;28;20433;-79
2023/06/28 05:14:29;;;;;;;5.85;3.70;;;15.00;99.90;;;;;;5026606;28;20128;-79
2023/06/28 05:16:58;;;;;;;7.13;3.70;;;15.10;99.90;;;;;;5044585;28;20044;-79
2023/06/28 05:19:25;;;;;;;5.65;3.45;;;15.20;99.90;;;;;;5032185;28;20037;-79
2023/06/28 05:21:51;;;;;;;6.30;3.70;;;15.30;99.90;;;;;;5031530;28;20416;-80
2023/06/28 05:24:18;;;;;;;8.48;3.92;;;15.30;99.90;;;;;;5034394;28;20041;-80
2023/06/28 05:26:44;;;;;;;6.63;3.60;;;15.40;99.90;;;;;;5031552;28;20225;-80
2023/06/28 05:29:10;;;;;;;7.82;3.75;;;15.40;99.90;;;;;;5035591;28;20244;-80
2023/06/28 05:31:42;;;;;;;5.80;3.58;;;15.50;99.90;;;;;;5033671;28;20076;-80
2023/06/28 05:34:07;;;;;;;6.63;4.07;;;15.60;99.90;;;;;;5025219;28;20052;-79
2023/06/28 05:36:33;;;;;;;7.57;3.53;;;15.50;99.90;;;;;;5022651;28;20041;-79
2023/06/28 05:38:59;;;;;;;6.90;3.63;;;15.60;99.90;;;;;;5037325;28;20045;-80
2023/06/28 05:41:24;;;;;;;9.63;3.75;;;15.60;99.90;;;;;;5021774;28;20057;-79
2023/06/28 05:43:50;;;;;;;5.93;3.55;;;15.70;99.90;;;;;;5034300;28;20131;-79
2023/06/28 05:46:16;;;;;;;6.18;3.63;;;15.70;99.90;;;;;;5021731;28;20040;-80
2023/06/28 05:48:42;;;;;;;6.78;3.70;;;15.80;99.90;;;;;;5036412;28;20396;-79
2023/06/28 05:51:10;;;;;;;7.10;4.10;;;15.90;99.90;;;;;;5039842;28;20395;-79
2023/06/28 05:53:37;;;;;;;5.93;4.43;;;15.90;99.90;;;;;;5035941;28;20057;-79
2023/06/28 05:56:04;;;;;;;6.85;3.67;;;16.00;99.90;;;;;;5034674;28;20438;-79
2023/06/28 05:58:29;;;;;;;7.82;4.18;;;16.10;99.90;;;;;;5017694;28;20037;-79
2023/06/28 06:00:55;;;;;;;9.52;4.22;;;16.10;99.90;;;;;;5030929;28;20110;-79
2023/06/28 06:03:21;;;;;;;5.55;3.83;;;16.20;99.90;;;;;;5032573;28;20437;-79
2023/06/28 06:05:47;;;;;;;8.18;4.28;;;16.20;99.90;;;;;;5033242;28;20096;-79
2023/06/28 06:08:13;;;;;;;9.32;4.50;;;16.40;99.90;;;;;;5034444;28;20037;-79
2023/06/28 06:10:38;;;;;;;6.55;4.43;;;16.50;99.90;;;;;;5033950;28;20048;-79
2023/06/28 06:13:04;;;;;;;8.75;4.35;;;16.30;99.90;;;;;;5035111;28;20433;-79
2023/06/28 06:15:30;;;;;;;8.25;4.55;;;16.50;99.90;;;;;;5032259;28;20048;-79
2023/06/28 06:17:56;;;;;;;6.82;4.55;;;16.40;99.90;;;;;;5030177;28;20045;-79
2023/06/28 06:20:22;;;;;;;6.43;4.43;;;16.60;99.90;;;;;;5034473;28;20504;-79
2023/06/28 06:22:49;;;;;;;10.07;5.00;;;16.60;99.90;;;;;;5035241;28;20193;-79
2023/06/28 06:25:15;;;;;;;8.32;4.47;;;16.50;99.90;;;;;;5048619;28;20039;-79
2023/06/28 06:27:41;;;;;;;10.30;5.25;;;16.60;99.90;;;;;;5032195;28;20037;-79
2023/06/28 06:30:07;;;;;;;7.15;4.20;;;16.60;99.90;;;;;;5065970;28;20041;-80
2023/06/28 06:32:33;;;;;;;6.65;4.50;;;16.70;99.90;;;;;;5019747;28;20041;-80
2023/06/28 06:34:59;;;;;;;7.40;4.30;;;16.80;99.90;;;;;;5025423;28;20110;-80
2023/06/28 06:37:28;;;;;;;7.70;5.00;;;16.70;99.90;;;;;;5046543;28;20518;-80
2023/06/28 06:39:54;;;;;;;9.52;4.90;;;16.70;99.90;;;;;;5023509;28;20049;-80
2023/06/28 06:42:19;;;;;;;9.50;5.40;;;16.70;99.90;;;;;;5035539;28;20040;-80
2023/06/28 06:44:45;;;;;;;9.15;5.15;;;16.80;99.90;;;;;;5024341;28;20040;-80
2023/06/28 06:47:11;;;;;;;10.07;4.75;;;16.80;99.90;;;;;;5018129;28;20434;-80
2023/06/28 06:49:37;;;;;;;11.43;5.10;;;16.90;99.90;;;;;;5024995;28;20037;-79
2023/06/28 06:52:03;;;;;;;10.27;5.72;;;16.80;99.90;;;;;;5068534;28;20033;-79
2023/06/28 06:54:29;;;;;;;10.60;5.47;;;16.80;99.90;;;;;;5035676;28;20041;-79
2023/06/28 06:56:56;;;;;;;8.73;5.70;;;16.70;99.90;;;;;;5040149;28;20041;-79
2023/06/28 06:59:23;;;;;;;9.40;5.47;;;16.50;99.90;;;;;;5036787;28;20415;-80
2023/06/28 07:01:52;;;;;;;13.38;5.60;;;16.60;99.90;;;;;;5023547;28;20056;-81
2023/06/28 07:04:19;;;;;;;11.02;5.82;;;16.50;99.90;;;;;;5023742;28;20048;-81
2023/06/28 07:06:46;;;;;;;13.80;6.90;;;16.50;99.90;;;;;;5055243;28;20029;-82
2023/06/28 07:09:14;;;;;;;9.90;6.20;;;16.50;99.90;;;;;;5035587;28;20044;-82
2023/06/28 07:11:40;;;;;;;11.30;5.40;;;16.40;99.90;;;;;;5023543;28;20430;-82
2023/06/28 07:14:05;;;;;;;9.43;5.47;;;16.50;99.90;;;;;;5034045;28;20182;-82
2023/06/28 07:16:33;;;;;;;13.90;6.80;;;16.70;99.90;;;;;;5066849;28;20349;-81
2023/06/28 07:19:00;;;;;;;9.73;5.57;;;16.60;99.90;;;;;;5067704;28;20063;-81
2023/06/28 07:21:25;;;;;;;9.85;5.80;;;16.70;99.90;;;;;;5066775;28;20040;-81
2023/06/28 07:23:51;;;;;;;9.82;5.50;;;16.60;99.90;;;;;;5020603;28;20051;-82
2023/06/28 07:26:17;;;;;;;10.48;5.85;;;16.80;99.90;;;;;;5034067;28;20049;-81
2023/06/28 07:28:43;;;;;;;10.88;6.30;;;16.60;99.90;;;;;;5023421;28;20052;-81
2023/06/28 07:31:15;;;;;;;9.32;5.93;;;16.70;99.90;;;;;;5022304;28;20032;-81
2023/06/28 07:33:42;;;;;;;9.18;5.65;;;16.70;99.90;;;;;;5032909;28;20119;-81
2023/06/28 07:36:07;;;;;;;8.57;5.45;;;16.70;99.90;;;;;;5034793;28;20176;-81
2023/06/28 07:38:33;;;;;;;14.25;6.60;;;16.70;99.90;;;;;;5023416;28;20164;-81
2023/06/28 07:40:59;;;;;;;9.90;6.07;;;16.70;99.90;;;;;;5032076;28;20052;-81
2023/06/28 07:43:25;;;;;;;12.35;6.10;;;16.90;99.90;;;;;;5013733;28;20049;-82
2023/06/28 07:45:52;;;;;;;10.70;6.40;;;17.10;99.90;;;;;;5049786;28;20035;-81
2023/06/28 07:48:18;;;;;;;9.60;5.65;;;17.10;99.90;;;;;;5035489;28;20207;-81
2023/06/28 07:50:44;;;;;;;11.20;6.07;;;17.30;99.90;;;;;;5034533;28;20276;-80
2023/06/28 07:53:10;;;;;;;8.95;6.10;;;17.30;99.90;;;;;;5036966;28;20446;-80
2023/06/28 07:55:36;;;;;;;10.88;6.45;;;17.50;99.90;;;;;;5033551;28;20056;-80
2023/06/28 07:58:02;;;;;;;13.65;6.93;;;17.30;99.90;;;;;;5044607;28;20106;-81
2023/06/28 08:00:28;;;;;;;13.10;5.97;;;17.30;99.90;;;;;;5066502;28;20032;-80
2023/06/28 08:02:54;;;;;;;13.02;5.82;;;17.30;99.90;;;;;;5030498;28;20094;-81
2023/06/28 08:05:20;;;;;;;9.60;5.88;;;17.30;99.90;;;;;;5016180;28;20649;-81
2023/06/28 08:07:46;;;;;;;10.27;5.70;;;17.30;99.90;;;;;;5033884;28;20045;-81
2023/06/28 08:10:12;;;;;;;9.13;6.35;;;17.40;99.90;;;;;;5017240;28;20437;-80
2023/06/28 08:12:38;;;;;;;11.02;6.40;;;17.40;99.90;;;;;;5035006;28;20033;-81
2023/06/28 08:15:04;;;;;;;9.40;6.57;;;17.40;99.90;;;;;;5063090;28;20467;-81
2023/06/28 08:17:30;;;;;;;10.70;6.03;;;17.60;99.90;;;;;;5032012;28;20118;-81
2023/06/28 08:19:56;;;;;;;10.00;5.85;;;17.70;99.90;;;;;;5052084;28;20076;-81
2023/06/28 08:22:22;;;;;;;13.73;6.28;;;17.80;99.90;;;;;;5035767;28;20179;-81
2023/06/28 08:24:51;;;;;;;8.95;6.25;;;17.90;99.90;;;;;;5034463;28;20116;-81
2023/06/28 08:27:16;;;;;;;12.77;6.55;;;18.10;99.90;;;;;;5060241;28;20116;-81
2023/06/28 08:29:42;;;;;;;8.77;5.60;;;18.30;99.90;;;;;;5029621;28;20706;-81
2023/06/28 08:32:09;;;;;;;10.15;5.75;;;18.50;99.90;;;;;;5064440;28;20048;-81
2023/06/28 08:34:35;;;;;;;16.30;6.38;;;18.40;99.90;;;;;;5063987;28;20039;-81
2023/06/28 08:37:01;;;;;;;9.52;5.47;;;18.30;99.90;;;;;;5017364;28;20052;-81
2023/06/28 08:39:26;;;;;;;9.07;6.30;;;18.40;99.90;;;;;;5035797;28;20358;-81
2023/06/28 08:41:52;;;;;;;13.15;6.25;;;18.40;99.90;;;;;;5033822;28;20068;-81
2023/06/28 08:44:21;;;;;;;12.38;6.43;;;18.20;99.90;;;;;;5016702;28;20037;-81
2023/06/28 08:46:49;;;;;;;9.52;6.38;;;18.20;99.90;;;;;;5031752;28;20072;-81
2023/06/28 08:49:15;;;;;;;9.93;5.63;;;18.30;99.90;;;;;;5066283;28;20048;-80
2023/06/28 08:51:42;;;;;;;9.90;5.85;;;18.40;99.90;;;;;;5031239;28;20045;-80
2023/06/28 08:54:11;;;;;;;8.82;6.07;;;18.40;99.90;;;;;;5021197;28;20065;-80
2023/06/28 08:56:38;;;;;;;8.77;5.65;;;18.40;99.90;;;;;;5052160;28;20080;-80
2023/06/28 08:59:03;;;;;;;10.57;6.22;;;18.50;99.90;;;;;;5015634;28;20041;-80
2023/06/28 09:01:31;;;;;;;12.73;6.07;;;18.50;99.90;;;;;;5035996;28;20101;-80
2023/06/28 09:03:57;;;;;;;10.43;5.57;;;18.60;99.90;;;;;;5048622;28;20151;-80
2023/06/28 09:06:23;;;;;;;11.02;6.00;;;18.50;99.90;;;;;;5020734;28;20036;-80
2023/06/28 09:08:50;;;;;;;8.88;5.82;;;18.50;99.90;;;;;;5036044;28;20082;-80
2023/06/28 09:11:16;;;;;;;8.93;6.28;;;18.40;99.90;;;;;;5025710;28;20134;-79
2023/06/28 09:13:43;;;;;;;8.60;6.57;;;18.60;99.90;;;;;;5045198;28;20366;-79
2023/06/28 09:16:10;;;;;;;8.52;6.78;;;18.70;99.90;;;;;;5026499;28;20099;-79
2023/06/28 09:18:36;;;;;;;9.82;6.82;;;18.40;99.90;;;;;;5036225;28;20109;-79
2023/06/28 09:21:02;;;;;;;9.65;6.40;;;18.50;99.90;;;;;;5039586;28;20045;-80
2023/06/28 09:23:33;;;;;;;10.18;7.40;;;18.50;99.90;;;;;;5042428;28;20040;-79
2023/06/28 09:25:59;;;;;;;9.35;6.93;;;18.50;99.90;;;;;;5038565;28;20519;-79
2023/06/28 09:28:33;;;;;;;11.90;7.72;;;18.50;99.90;;;;;;5042632;28;20365;-79
2023/06/28 09:30:59;;;;;;;11.52;7.63;;;18.60;99.90;;;;;;5033553;28;20044;-80
2023/06/28 09:33:25;;;;;;;11.70;7.72;;;18.60;99.90;;;;;;5046151;28;20454;-79
2023/06/28 09:35:58;;;;;;;10.80;7.63;;;18.60;99.90;;;;;;5070490;28;20059;-79
2023/06/28 09:38:25;;;;;;;10.57;7.70;;;18.50;99.90;;;;;;5040779;28;20095;-79
2023/06/28 09:40:58;;;;;;;12.45;7.45;;;18.30;99.90;;;;;;5029880;28;20151;-79
2023/06/28 09:43:29;;;;;;;12.30;8.05;;;18.40;99.90;;;;;;5043146;28;20045;-79
2023/06/28 09:45:55;;;;;;;12.60;8.80;;;18.40;99.90;;;;;;5040477;28;20060;-79
2023/06/28 09:48:25;;;;;;;13.73;8.40;;;18.40;99.90;;;;;;5046188;28;20101;-79
2023/06/28 09:50:51;;;;;;;12.88;9.25;;;18.50;99.90;;;;;;5041079;28;20128;-79
2023/06/28 09:53:21;;;;;;;11.75;8.63;;;18.50;99.90;;;;;;5038834;28;20124;-79
2023/06/28 09:55:49;;;;;;;12.93;9.68;;;18.60;99.90;;;;;;5033364;28;20370;-79
2023/06/28 09:58:16;;;;;;;14.30;9.30;;;18.70;99.90;;;;;;5034759;28;20044;-79
2023/06/28 10:00:44;;;;;;;14.80;10.35;;;18.50;99.90;;;;;;5037899;28;20052;-79
2023/06/28 10:03:11;;;;;;;14.63;9.77;;;18.70;99.90;;;;;;5038475;28;20601;-80
2023/06/28 10:05:40;;;;;;;12.95;9.40;;;18.60;99.90;;;;;;5043222;28;20436;-79
2023/06/28 10:08:09;;;;;;;12.95;9.57;;;18.70;99.90;;;;;;5030449;28;20045;-80
2023/06/28 10:10:37;;;;;;;15.65;9.85;;;18.70;99.90;;;;;;5042099;28;20094;-79
2023/06/28 10:13:05;;;;;;;15.18;9.88;;;18.60;99.90;;;;;;5023630;28;20036;-79
2023/06/28 10:15:50;;;;;;;13.68;9.40;;;18.50;99.90;;;;;;5037342;28;20355;-79
2023/06/28 10:18:17;;;;;;;14.48;9.55;;;18.50;99.90;;;;;;5037774;28;20114;-80
2023/06/28 10:20:43;;;;;;;15.38;9.90;;;18.30;99.90;;;;;;5041218;28;20325;-80
2023/06/28 10:23:12;;;;;;;17.38;9.82;;;18.40;99.90;;;;;;5026051;28;20556;-80
2023/06/28 10:25:44;;;;;;;13.68;9.90;;;18.40;99.90;;;;;;5037165;28;20436;-79
2023/06/28 10:28:10;;;;;;;12.13;9.93;;;18.40;99.90;;;;;;5039411;28;20089;-80
2023/06/28 10:30:38;;;;;;;15.82;9.90;;;18.50;99.90;;;;;;5022456;28;20479;-80
2023/06/28 10:33:06;;;;;;;15.98;9.80;;;18.30;99.90;;;;;;5052117;28;20037;-79
2023/06/28 10:35:32;;;;;;;12.93;9.68;;;18.30;99.90;;;;;;5021607;28;20036;-79
2023/06/28 10:37:59;;;;;;;14.07;10.40;;;18.30;99.90;;;;;;5039322;28;20041;-80
2023/06/28 10:40:25;;;;;;;16.05;10.10;;;18.30;99.90;;;;;;5038394;28;20123;-79
2023/06/28 10:42:51;;;;;;;16.27;10.60;;;18.30;99.90;;;;;;5038808;28;20046;-80
2023/06/28 10:45:31;;;;;;;14.73;10.25;;;18.30;99.90;;;;;;5036154;28;20075;-79
2023/06/28 10:47:56;;;;;;;16.20;10.15;;;18.40;99.90;;;;;;5021802;28;20084;-79
2023/06/28 10:50:23;;;;;;;18.55;10.40;;;18.40;99.90;;;;;;5025747;28;20082;-80
2023/06/28 10:52:52;;;;;;;17.35;10.73;;;18.40;99.90;;;;;;5023354;28;20430;-80
2023/06/28 10:55:32;;;;;;;13.77;10.15;;;18.30;99.90;;;;;;5035537;28;20060;-79
2023/06/28 10:58:05;;;;;;;16.08;10.50;;;18.30;99.90;;;;;;5036112;28;20098;-79
2023/06/28 11:00:40;;;;;;;17.15;10.07;;;18.50;99.90;;;;;;5037220;28;20032;-79
2023/06/28 11:03:06;;;;;;;13.15;9.95;;;18.60;99.90;;;;;;5032970;28;20087;-79
2023/06/28 11:05:52;;;;;;;14.75;9.85;;;18.60;99.90;;;;;;5033614;28;20052;-80
2023/06/28 11:08:18;;;;;;;14.98;10.10;;;18.60;99.90;;;;;;5024140;28;20044;-79
2023/06/28 11:10:47;;;;;;;16.58;10.07;;;18.40;99.90;;;;;;5024418;28;20029;-79
2023/06/28 11:13:15;;;;;;;15.88;10.27;;;18.50;99.90;;;;;;5022297;28;20443;-79
2023/06/28 11:15:47;;;;;;;13.43;10.55;;;18.30;99.90;;;;;;5065185;28;20032;-79
2023/06/28 11:18:20;;;;;;;13.38;10.10;;;18.40;99.90;;;;;;5069014;28;20441;-80
2023/06/28 11:21:01;;;;;;;13.35;10.60;;;18.50;99.90;;;;;;5033853;28;20044;-79
2023/06/28 11:23:41;;;;;;;16.83;10.90;;;18.40;99.90;;;;;;5037180;28;20051;-80
2023/06/28 11:26:18;;;;;;;12.13;10.02;;;18.50;99.90;;;;;;5016760;28;20123;-79
2023/06/28 11:28:54;;;;;;;16.30;10.60;;;18.60;99.90;;;;;;5034999;28;20144;-79
2023/06/28 11:31:38;;;;;;;12.68;10.00;;;18.70;99.90;;;;;;5019967;28;20118;-80
2023/06/28 11:34:04;;;;;;;14.93;10.52;;;18.80;99.90;;;;;;5026414;28;20048;-80
2023/06/28 11:36:31;;;;;;;16.38;10.10;;;18.80;99.90;;;;;;5041573;28;20040;-80
2023/06/28 11:38:57;;;;;;;11.80;9.60;;;18.90;99.90;;;;;;5036108;28;20141;-79
2023/06/28 11:41:23;;;;;;;13.13;9.98;;;19.00;99.90;;;;;;5035622;28;20470;-79
2023/06/28 11:43:49;;;;;;;13.10;9.65;;;19.00;99.90;;;;;;5031663;28;20395;-79
2023/06/28 11:46:22;;;;;;;15.68;10.27;;;18.90;99.90;;;;;;5034762;28;20463;-79
2023/06/28 11:48:49;;;;;;;15.30;10.43;;;18.80;99.90;;;;;;5016064;28;20082;-79
2023/06/28 11:51:16;;;;;;;13.57;10.30;;;18.90;99.90;;;;;;5022229;28;20555;-79
2023/06/28 11:53:55;;;;;;;12.30;10.02;;;19.00;99.90;;;;;;5068440;28;20114;-79
2023/06/28 11:56:41;;;;;;;13.38;10.15;;;18.90;99.90;;;;;;5021040;28;20345;-79
2023/06/28 11:59:20;;;;;;;11.93;9.52;;;18.90;99.90;;;;;;5020160;28;20044;-79
2023/06/28 12:01:47;;;;;;;12.00;9.07;;;18.90;99.90;;;;;;5033426;28;20044;-79
2023/06/28 12:04:21;;;;;;;14.15;9.85;;;19.00;99.90;;;;;;5050450;28;20040;-79
2023/06/28 12:06:47;;;;;;;13.48;10.00;;;18.90;99.90;;;;;;5034563;28;20511;-79
2023/06/28 12:09:18;;;;;;;12.38;9.93;;;19.00;99.90;;;;;;5038180;28;20102;-80
2023/06/28 12:11:54;;;;;;;12.40;10.15;;;18.90;99.90;;;;;;5062603;28;20569;-79
2023/06/28 12:14:23;;;;;;;14.25;10.38;;;18.90;99.90;;;;;;5030691;28;20103;-79
2023/06/28 12:16:52;;;;;;;12.63;10.32;;;19.00;99.90;;;;;;5036730;28;20045;-79
2023/06/28 12:19:19;;;;;;;15.73;11.18;;;18.90;99.90;;;;;;5029927;28;20041;-79
2023/06/28 12:21:46;;;;;;;14.65;10.70;;;18.80;99.90;;;;;;5022420;28;20040;-79
2023/06/28 12:24:16;;;;;;;13.65;11.30;;;18.90;99.90;;;;;;5023529;28;20130;-80
2023/06/28 12:26:49;;;;;;;15.32;10.88;;;18.80;99.90;;;;;;5064627;28;20124;-79
2023/06/28 12:29:21;;;;;;;14.75;12.15;;;18.80;99.90;;;;;;5019182;28;20068;-79
2023/06/28 12:31:52;;;;;;;15.73;13.10;;;18.90;99.90;;;;;;5019299;28;20170;-80
2023/06/28 12:34:38;;;;;;;14.18;12.60;;;19.00;99.90;;;;;;5034636;28;20074;-79
2023/06/28 12:37:04;;;;;;;15.70;12.80;;;19.10;99.90;;;;;;5021583;28;20124;-80
2023/06/28 12:39:34;;;;;;;17.75;13.77;;;19.10;99.90;;;;;;5037085;28;20052;-81